Time;durP1;ratioP1;P1;durP2;ratioP2;P2;SDS_P1;SDS_P2;PMS_P1;PMS_P2;Temp;Humidity;BMP_temperature;BMP_pressure;BME280_temperature;BME280_humidity;BME280_pressure;Samples;Min_cycle;Max_cycle;Signal;HPM_P1;HPM_P2
2022/09/07 00:01:04;;;;;;;8.02;3.00;;;;;;;;;;5100305;28;20430;-78
2022/09/07 00:03:31;;;;;;;5.35;2.65;;;;;;;;;;5111649;28;20172;-78
2022/09/07 00:05:57;;;;;;;6.28;3.20;;;;;;;;;;5111568;28;20102;-79
2022/09/07 00:08:24;;;;;;;5.75;3.17;;;;;;;;;;5111566;28;20024;-78
2022/09/07 00:10:54;;;;;;;6.40;3.33;;;;;;;;;;5111650;28;20023;-78
2022/09/07 00:13:20;;;;;;;8.68;3.58;;;;;;;;;;5111507;28;20031;-78
2022/09/07 00:15:46;;;;;;;9.25;3.95;;;;;;;;;;5111837;28;20034;-78
2022/09/07 00:18:12;;;;;;;12.40;4.05;;;;;;;;;;5111252;28;20032;-78
2022/09/07 00:20:38;;;;;;;8.23;4.53;;;;;;;;;;5111446;28;20092;-78
2022/09/07 00:23:04;;;;;;;9.80;4.03;;;;;;;;;;5111468;28;20046;-78
2022/09/07 00:25:30;;;;;;;9.05;4.28;;;;;;;;;;5111418;28;20073;-78
2022/09/07 00:27:56;;;;;;;10.73;4.68;;;;;;;;;;5111218;28;20035;-79
2022/09/07 00:30:22;;;;;;;9.95;4.88;;;;;;;;;;5111293;28;20031;-78
2022/09/07 00:32:48;;;;;;;7.57;4.35;;;;;;;;;;5108836;28;20385;-78
2022/09/07 00:35:14;;;;;;;6.93;4.38;;;;;;;;;;5091265;28;20031;-79
2022/09/07 00:37:40;;;;;;;9.05;4.30;;;;;;;;;;5090934;28;20031;-78
2022/09/07 00:40:07;;;;;;;8.85;4.90;;;;;;;;;;5091005;28;20016;-79
2022/09/07 00:42:33;;;;;;;11.93;5.32;;;;;;;;;;5090875;28;20021;-78
2022/09/07 00:45:07;;;;;;;12.18;5.75;;;;;;;;;;5090973;28;20024;-78
2022/09/07 00:47:42;;;;;;;11.93;5.57;;;;;;;;;;5094562;28;20030;-78
2022/09/07 00:50:13;;;;;;;11.20;5.13;;;;;;;;;;5094518;28;20055;-78
2022/09/07 00:52:40;;;;;;;17.23;6.78;;;;;;;;;;5094651;28;20092;-78
2022/09/07 00:55:09;;;;;;;10.75;5.88;;;;;;;;;;5094713;28;20031;-78
2022/09/07 00:57:36;;;;;;;11.32;5.07;;;;;;;;;;5094347;28;20039;-78
2022/09/07 01:00:04;;;;;;;8.68;5.43;;;;;;;;;;5076174;28;20028;-78
2022/09/07 01:02:30;;;;;;;11.10;4.97;;;;;;;;;;5114028;28;20774;-78
2022/09/07 01:05:03;;;;;;;11.73;4.95;;;;;;;;;;5114651;28;20092;-78
2022/09/07 01:07:29;;;;;;;8.65;4.32;;;;;;;;;;5114505;28;20051;-78
2022/09/07 01:09:56;;;;;;;8.80;5.50;;;;;;;;;;5096230;28;20035;-79
2022/09/07 01:12:22;;;;;;;13.20;6.25;;;;;;;;;;5114361;28;20075;-78
2022/09/07 01:14:50;;;;;;;8.80;5.18;;;;;;;;;;5114571;28;20093;-78
2022/09/07 01:17:16;;;;;;;12.38;6.45;;;;;;;;;;5114540;28;20047;-79
2022/09/07 01:19:59;;;;;;;10.48;6.15;;;;;;;;;;5114461;28;20023;-78
2022/09/07 01:22:43;;;;;;;13.30;6.50;;;;;;;;;;5103426;28;20386;-78
2022/09/07 01:25:09;;;;;;;16.90;6.78;;;;;;;;;;5073883;28;20024;-78
2022/09/07 01:27:44;;;;;;;16.17;6.60;;;;;;;;;;5073697;28;20031;-79
2022/09/07 01:30:12;;;;;;;13.15;6.80;;;;;;;;;;5073576;28;20100;-78
2022/09/07 01:32:51;;;;;;;12.38;5.30;;;;;;;;;;5055438;28;20028;-78
2022/09/07 01:35:25;;;;;;;10.55;5.43;;;;;;;;;;5073664;28;20028;-78
2022/09/07 01:38:07;;;;;;;9.38;5.43;;;;;;;;;;5055233;28;20021;-78
2022/09/07 01:40:53;;;;;;;10.35;5.80;;;;;;;;;;5073520;28;20363;-78
2022/09/07 01:43:31;;;;;;;8.48;5.38;;;;;;;;;;5073014;28;20166;-78
2022/09/07 01:45:58;;;;;;;8.93;5.75;;;;;;;;;;5073353;28;20070;-78
2022/09/07 01:48:25;;;;;;;11.15;6.00;;;;;;;;;;5054986;28;20483;-79
2022/09/07 01:50:53;;;;;;;10.88;5.57;;;;;;;;;;5073191;28;20040;-79
2022/09/07 01:53:23;;;;;;;14.70;6.40;;;;;;;;;;5073030;28;20442;-78
2022/09/07 01:55:52;;;;;;;11.02;5.30;;;;;;;;;;5073263;28;20033;-79
2022/09/07 01:58:18;;;;;;;11.90;5.45;;;;;;;;;;5079550;28;20024;-79
2022/09/07 02:00:51;;;;;;;8.73;4.65;;;;;;;;;;5095270;28;20021;-79
2022/09/07 02:03:25;;;;;;;9.38;5.85;;;;;;;;;;5113470;28;20024;-78
2022/09/07 02:05:58;;;;;;;11.05;6.03;;;;;;;;;;5113522;28;20154;-78
2022/09/07 02:08:33;;;;;;;11.55;5.43;;;;;;;;;;5095113;28;20028;-78
2022/09/07 02:11:04;;;;;;;9.52;4.82;;;;;;;;;;5113468;28;20065;-78
2022/09/07 02:13:41;;;;;;;10.27;4.80;;;;;;;;;;5113307;28;20423;-78
2022/09/07 02:16:13;;;;;;;12.45;5.35;;;;;;;;;;5113261;28;20015;-78
2022/09/07 02:18:50;;;;;;;9.32;5.57;;;;;;;;;;5113056;28;20027;-78
2022/09/07 02:21:20;;;;;;;9.25;4.88;;;;;;;;;;5113299;28;20020;-78
2022/09/07 02:23:48;;;;;;;8.32;4.47;;;;;;;;;;5113297;28;20027;-79
2022/09/07 02:26:19;;;;;;;13.63;4.75;;;;;;;;;;5113347;28;20027;-78
2022/09/07 02:28:45;;;;;;;11.52;5.28;;;;;;;;;;5113092;28;20028;-78
2022/09/07 02:31:11;;;;;;;9.07;4.22;;;;;;;;;;5113027;28;20028;-78
2022/09/07 02:33:37;;;;;;;7.43;4.50;;;;;;;;;;5103966;28;20103;-78
2022/09/07 02:36:04;;;;;;;7.78;5.60;;;;;;;;;;5092491;28;20078;-78
2022/09/07 02:38:31;;;;;;;8.38;4.88;;;;;;;;;;5092483;28;20027;-78
2022/09/07 02:40:58;;;;;;;10.40;5.40;;;;;;;;;;5092564;28;20077;-78
2022/09/07 02:43:24;;;;;;;13.35;5.75;;;;;;;;;;5092554;28;20039;-79
2022/09/07 02:46:06;;;;;;;17.55;7.05;;;;;;;;;;5092617;28;20103;-79
2022/09/07 02:48:50;;;;;;;12.00;5.57;;;;;;;;;;5092359;28;20036;-78
2022/09/07 02:51:37;;;;;;;11.90;6.45;;;;;;;;;;5092530;28;20028;-79
2022/09/07 02:54:03;;;;;;;12.05;6.20;;;;;;;;;;5092353;28;20042;-79
2022/09/07 02:56:50;;;;;;;12.15;6.00;;;;;;;;;;5092275;28;20024;-78
2022/09/07 02:59:34;;;;;;;8.90;6.10;;;;;;;;;;5092191;28;20030;-78
2022/09/07 03:02:00;;;;;;;15.25;6.53;;;;;;;;;;5103282;28;20058;-79
2022/09/07 03:04:56;;;;;;;11.13;6.32;;;;;;;;;;5112596;28;20047;-79
2022/09/07 03:07:23;;;;;;;10.45;6.18;;;;;;;;;;5072876;28;20470;-79
2022/09/07 03:09:52;;;;;;;8.48;5.20;;;;;;;;;;5111727;28;20055;-78
2022/09/07 03:12:18;;;;;;;10.00;5.15;;;;;;;;;;5112168;28;20043;-78
2022/09/07 03:14:44;;;;;;;9.43;5.53;;;;;;;;;;5112366;28;20024;-78
2022/09/07 03:17:10;;;;;;;14.57;6.57;;;;;;;;;;5111992;28;20374;-79
2022/09/07 03:19:37;;;;;;;8.35;5.88;;;;;;;;;;5112127;28;20405;-79
2022/09/07 03:22:03;;;;;;;7.57;4.28;;;;;;;;;;5109763;28;20129;-79
2022/09/07 03:24:30;;;;;;;8.10;5.60;;;;;;;;;;5091689;28;20032;-79
2022/09/07 03:26:56;;;;;;;8.40;5.72;;;;;;;;;;5091736;28;20050;-78
2022/09/07 03:29:22;;;;;;;10.40;6.10;;;;;;;;;;5091744;28;20035;-78
2022/09/07 03:31:48;;;;;;;14.07;6.88;;;;;;;;;;5091647;28;20474;-79
2022/09/07 03:34:15;;;;;;;12.68;6.60;;;;;;;;;;5091532;28;20020;-78
2022/09/07 03:36:41;;;;;;;11.45;5.88;;;;;;;;;;5091591;28;20377;-78
2022/09/07 03:39:07;;;;;;;10.00;6.00;;;;;;;;;;5091626;28;20172;-79
2022/09/07 03:41:33;;;;;;;11.13;6.28;;;;;;;;;;5091503;28;20020;-78
2022/09/07 03:44:04;;;;;;;11.38;5.82;;;;;;;;;;5091307;28;20028;-79
2022/09/07 03:46:30;;;;;;;9.88;5.03;;;;;;;;;;5091602;28;20082;-79
2022/09/07 03:48:56;;;;;;;10.80;5.88;;;;;;;;;;5091447;28;20043;-79
2022/09/07 03:51:22;;;;;;;12.50;6.25;;;;;;;;;;5091555;28;20107;-78
2022/09/07 03:53:50;;;;;;;10.77;5.15;;;;;;;;;;5091294;28;20197;-78
2022/09/07 03:56:19;;;;;;;7.18;5.10;;;;;;;;;;5091221;28;20167;-78
2022/09/07 03:58:45;;;;;;;10.18;5.85;;;;;;;;;;5090975;28;20020;-78
2022/09/07 04:01:14;;;;;;;9.73;5.18;;;;;;;;;;5092937;28;20028;-79
2022/09/07 04:03:41;;;;;;;11.73;6.78;;;;;;;;;;5111699;28;20087;-79
2022/09/07 04:06:07;;;;;;;14.90;5.78;;;;;;;;;;5111738;28;20016;-79
2022/09/07 04:08:34;;;;;;;16.00;5.88;;;;;;;;;;5111618;28;20097;-78
2022/09/07 04:11:02;;;;;;;11.18;6.18;;;;;;;;;;5111480;28;20085;-79
2022/09/07 04:13:29;;;;;;;10.57;5.95;;;;;;;;;;5111508;28;20816;-78
2022/09/07 04:15:55;;;;;;;9.45;6.15;;;;;;;;;;5111706;28;20020;-78
2022/09/07 04:18:21;;;;;;;13.05;6.25;;;;;;;;;;5111292;28;20063;-78
2022/09/07 04:20:49;;;;;;;12.65;6.65;;;;;;;;;;5114289;28;20032;-78
2022/09/07 04:23:15;;;;;;;15.23;6.35;;;;;;;;;;5115979;28;20103;-78
2022/09/07 04:25:51;;;;;;;12.07;6.22;;;;;;;;;;5115517;28;20016;-78
2022/09/07 04:28:18;;;;;;;13.38;6.05;;;;;;;;;;5115535;28;20027;-79
2022/09/07 04:30:44;;;;;;;11.48;6.70;;;;;;;;;;5115548;28;20024;-78
2022/09/07 04:33:11;;;;;;;19.63;7.95;;;;;;;;;;5109958;28;20024;-79
2022/09/07 04:35:37;;;;;;;19.23;8.35;;;;;;;;;;5094998;28;20106;-78
2022/09/07 04:38:04;;;;;;;17.38;7.57;;;;;;;;;;5094746;28;20097;-79
2022/09/07 04:40:30;;;;;;;20.75;8.20;;;;;;;;;;5094878;28;20020;-79
2022/09/07 04:42:56;;;;;;;12.73;7.43;;;;;;;;;;5076443;28;20020;-78
2022/09/07 04:45:22;;;;;;;12.32;7.60;;;;;;;;;;5094690;28;20424;-78
2022/09/07 04:47:48;;;;;;;14.98;7.63;;;;;;;;;;5094887;28;20024;-78
2022/09/07 04:50:15;;;;;;;15.98;6.97;;;;;;;;;;5094434;28;20024;-79
2022/09/07 04:52:42;;;;;;;20.02;7.75;;;;;;;;;;5094630;28;20133;-78
2022/09/07 04:55:08;;;;;;;19.15;8.43;;;;;;;;;;5094700;28;20027;-78
2022/09/07 04:57:34;;;;;;;15.00;7.85;;;;;;;;;;5094552;28;20028;-79
2022/09/07 05:00:00;;;;;;;21.42;8.52;;;;;;;;;;5094543;28;20089;-79
2022/09/07 05:02:26;;;;;;;20.10;9.63;;;;;;;;;;5105008;28;20022;-78
2022/09/07 05:04:52;;;;;;;19.02;7.50;;;;;;;;;;5114691;28;20028;-78
2022/09/07 05:07:18;;;;;;;24.48;8.60;;;;;;;;;;5114618;28;20089;-78
2022/09/07 05:09:44;;;;;;;15.23;8.23;;;;;;;;;;5114705;28;20059;-79
2022/09/07 05:12:10;;;;;;;19.50;8.48;;;;;;;;;;5114445;28;20141;-79
2022/09/07 05:14:36;;;;;;;16.92;8.65;;;;;;;;;;5114636;28;20056;-78
2022/09/07 05:17:03;;;;;;;16.73;8.27;;;;;;;;;;5114661;28;20584;-79
2022/09/07 05:19:29;;;;;;;19.45;9.32;;;;;;;;;;5095829;28;20031;-79
2022/09/07 05:21:57;;;;;;;15.77;8.85;;;;;;;;;;5111767;28;20019;-79
2022/09/07 05:24:25;;;;;;;15.90;10.02;;;;;;;;;;5073842;28;20013;-79
2022/09/07 05:26:51;;;;;;;17.48;8.63;;;;;;;;;;5073853;28;20020;-79
2022/09/07 05:29:17;;;;;;;16.65;9.10;;;;;;;;;;5073685;28;20028;-79
2022/09/07 05:31:43;;;;;;;15.98;9.43;;;;;;;;;;5073230;28;20111;-79
2022/09/07 05:34:09;;;;;;;14.02;8.48;;;;;;;;;;5073451;28;20111;-79
2022/09/07 05:36:36;;;;;;;11.52;7.63;;;;;;;;;;5073513;28;20056;-78
2022/09/07 05:39:04;;;;;;;18.23;8.35;;;;;;;;;;5073717;28;20106;-79
2022/09/07 05:41:30;;;;;;;12.60;8.10;;;;;;;;;;5073572;28;20035;-78
2022/09/07 05:43:56;;;;;;;18.67;8.18;;;;;;;;;;5073335;28;20028;-78
2022/09/07 05:46:22;;;;;;;15.38;8.43;;;;;;;;;;5073389;28;20021;-79
2022/09/07 05:48:49;;;;;;;21.60;9.85;;;;;;;;;;5073411;28;20082;-78
2022/09/07 05:51:15;;;;;;;18.50;9.77;;;;;;;;;;5073637;28;20044;-79
2022/09/07 05:53:42;;;;;;;25.35;10.55;;;;;;;;;;5073294;28;20043;-79
2022/09/07 05:56:08;;;;;;;15.00;8.52;;;;;;;;;;5073271;28;20021;-79
2022/09/07 05:58:35;;;;;;;12.45;7.88;;;;;;;;;;5072909;28;20032;-79
2022/09/07 06:01:05;;;;;;;13.65;7.97;;;;;;;;;;5073114;28;20020;-79
2022/09/07 06:03:32;;;;;;;17.13;9.40;;;;;;;;;;5107072;28;20026;-78
2022/09/07 06:06:18;;;;;;;19.50;9.60;;;;;;;;;;5113644;28;20011;-79
2022/09/07 06:08:46;;;;;;;19.73;7.95;;;;;;;;;;5113455;28;20031;-79
2022/09/07 06:11:13;;;;;;;21.20;9.25;;;;;;;;;;5113553;28;20576;-79
2022/09/07 06:13:40;;;;;;;16.58;10.00;;;;;;;;;;5113362;28;20028;-79
2022/09/07 06:16:07;;;;;;;21.23;10.32;;;;;;;;;;5113337;28;20056;-79
2022/09/07 06:18:34;;;;;;;18.90;10.95;;;;;;;;;;5112831;28;20128;-79
2022/09/07 06:21:33;;;;;;;15.85;10.82;;;;;;;;;;5112902;28;20481;-79
2022/09/07 06:23:59;;;;;;;19.75;11.60;;;;;;;;;;5057357;28;20103;-79
2022/09/07 06:26:25;;;;;;;26.10;13.70;;;;;;;;;;5113264;28;20102;-79
2022/09/07 06:28:51;;;;;;;22.15;12.77;;;;;;;;;;5112835;28;20351;-78
2022/09/07 06:31:18;;;;;;;22.50;12.25;;;;;;;;;;5112808;28;20024;-78
2022/09/07 06:33:46;;;;;;;20.80;11.43;;;;;;;;;;5092853;28;20024;-78
2022/09/07 06:36:13;;;;;;;21.33;13.82;;;;;;;;;;5071755;28;20059;-78
2022/09/07 06:38:40;;;;;;;23.33;12.15;;;;;;;;;;5072115;28;20025;-78
2022/09/07 06:41:11;;;;;;;19.15;11.88;;;;;;;;;;5071903;28;20094;-78
2022/09/07 06:43:37;;;;;;;25.65;12.68;;;;;;;;;;5070998;28;20443;-78
2022/09/07 06:46:04;;;;;;;21.58;12.23;;;;;;;;;;5072150;28;20142;-78
2022/09/07 06:48:30;;;;;;;23.10;13.27;;;;;;;;;;5072038;28;20470;-78
2022/09/07 06:51:00;;;;;;;23.98;12.85;;;;;;;;;;5072285;28;20067;-78
2022/09/07 06:53:27;;;;;;;21.48;11.68;;;;;;;;;;5072000;28;20086;-78
2022/09/07 06:55:53;;;;;;;19.60;12.25;;;;;;;;;;5071976;28;20028;-78
2022/09/07 06:58:19;;;;;;;21.17;13.68;;;;;;;;;;5071764;28;20035;-78
2022/09/07 07:00:46;;;;;;;20.13;12.50;;;;;;;;;;5072031;28;20024;-77
2022/09/07 07:03:12;;;;;;;18.73;12.43;;;;;;;;;;5084752;28;20028;-78
2022/09/07 07:05:38;;;;;;;22.85;12.80;;;;;;;;;;5092104;28;20027;-78
2022/09/07 07:08:04;;;;;;;19.77;13.38;;;;;;;;;;5091884;28;20508;-78
2022/09/07 07:10:30;;;;;;;24.52;15.30;;;;;;;;;;5092146;28;20059;-78
2022/09/07 07:12:56;;;;;;;19.48;13.18;;;;;;;;;;5110350;28;20067;-78
2022/09/07 07:15:23;;;;;;;20.90;12.88;;;;;;;;;;5112472;28;20061;-78
2022/09/07 07:17:49;;;;;;;20.80;13.27;;;;;;;;;;5112296;28;20050;-78
2022/09/07 07:20:15;;;;;;;19.67;14.35;;;;;;;;;;5112383;28;20157;-79
2022/09/07 07:22:41;;;;;;;22.83;13.75;;;;;;;;;;5111999;28;20034;-78
2022/09/07 07:25:07;;;;;;;22.58;14.07;;;;;;;;;;5112352;28;20103;-78
2022/09/07 07:27:33;;;;;;;19.88;13.35;;;;;;;;;;5112019;28;20019;-78
2022/09/07 07:29:59;;;;;;;22.95;14.85;;;;;;;;;;5112432;28;20040;-79
2022/09/07 07:32:26;;;;;;;22.30;13.80;;;;;;;;;;5112057;28;20016;-78
2022/09/07 07:35:20;;;;;;;19.65;13.82;;;;;;;;;;5111830;28;20095;-78
2022/09/07 07:37:47;;;;;;;22.20;15.10;;;;;;;;;;5111815;28;20550;-78
2022/09/07 07:40:13;;;;;;;20.52;14.60;;;;;;;;;;5112368;28;20476;-78
2022/09/07 07:42:40;;;;;;;25.88;15.23;;;;;;;;;;5112436;28;20038;-78
2022/09/07 07:45:07;;;;;;;20.67;14.85;;;;;;;;;;5111966;28;20043;-79
2022/09/07 07:47:34;;;;;;;22.48;15.68;;;;;;;;;;5111961;28;20080;-78
2022/09/07 07:50:01;;;;;;;26.00;16.27;;;;;;;;;;5111820;28;20102;-79
2022/09/07 07:52:31;;;;;;;24.20;15.50;;;;;;;;;;5112108;28;20051;-78
2022/09/07 07:54:57;;;;;;;23.85;14.88;;;;;;;;;;5111725;28;20102;-78
2022/09/07 07:57:23;;;;;;;20.73;15.20;;;;;;;;;;5111469;28;20027;-78
2022/09/07 07:59:49;;;;;;;18.95;13.60;;;;;;;;;;5111678;28;20031;-79
2022/09/07 08:02:16;;;;;;;19.52;13.20;;;;;;;;;;5111410;28;20433;-79
2022/09/07 08:04:42;;;;;;;18.23;13.45;;;;;;;;;;5111710;28;20026;-79
2022/09/07 08:07:08;;;;;;;19.88;13.32;;;;;;;;;;5111936;28;20028;-79
2022/09/07 08:09:35;;;;;;;19.70;12.80;;;;;;;;;;5111816;28;20073;-78
2022/09/07 08:12:02;;;;;;;17.00;12.75;;;;;;;;;;5111582;28;20032;-78
2022/09/07 08:14:28;;;;;;;16.83;11.18;;;;;;;;;;5093321;28;20087;-78
2022/09/07 08:16:54;;;;;;;18.92;12.52;;;;;;;;;;5111809;28;20027;-79
2022/09/07 08:19:20;;;;;;;17.83;13.25;;;;;;;;;;5111671;28;20024;-79
2022/09/07 08:21:46;;;;;;;19.98;13.50;;;;;;;;;;5111810;28;20458;-78
2022/09/07 08:24:12;;;;;;;21.90;13.52;;;;;;;;;;5111424;28;20015;-79
2022/09/07 08:26:38;;;;;;;19.85;13.70;;;;;;;;;;5111506;28;20077;-79
2022/09/07 08:29:04;;;;;;;20.70;14.77;;;;;;;;;;5111566;28;20024;-79
2022/09/07 08:31:30;;;;;;;23.38;16.85;;;;;;;;;;5111509;28;20385;-78
2022/09/07 08:33:56;;;;;;;22.20;15.25;;;;;;;;;;5099768;28;20032;-78
2022/09/07 08:36:22;;;;;;;21.77;14.98;;;;;;;;;;5091141;28;20039;-78
2022/09/07 08:38:48;;;;;;;20.30;15.15;;;;;;;;;;5091157;28;20031;-79
2022/09/07 08:41:18;;;;;;;22.98;14.30;;;;;;;;;;5091172;28;20012;-79
2022/09/07 08:43:50;;;;;;;23.02;15.75;;;;;;;;;;5091118;28;20025;-78
2022/09/07 08:46:35;;;;;;;25.70;16.30;;;;;;;;;;5091140;28;20442;-79
2022/09/07 08:49:02;;;;;;;26.52;15.93;;;;;;;;;;5090793;28;20690;-79
2022/09/07 08:51:34;;;;;;;25.38;15.82;;;;;;;;;;5091076;28;20508;-79
2022/09/07 08:54:01;;;;;;;21.50;15.40;;;;;;;;;;5091025;28;20039;-78
2022/09/07 08:56:30;;;;;;;25.30;15.68;;;;;;;;;;5091185;28;20039;-79
2022/09/07 08:58:58;;;;;;;21.13;15.32;;;;;;;;;;5091048;28;20028;-79
2022/09/07 09:01:30;;;;;;;21.98;15.25;;;;;;;;;;5091139;28;20024;-78
2022/09/07 09:03:56;;;;;;;20.67;15.52;;;;;;;;;;5090742;28;20374;-79
2022/09/07 09:06:25;;;;;;;20.52;15.10;;;;;;;;;;5091168;28;20031;-79
2022/09/07 09:08:51;;;;;;;21.98;15.55;;;;;;;;;;5094712;28;20474;-79
2022/09/07 09:11:20;;;;;;;22.85;14.63;;;;;;;;;;5094133;28;20051;-79
2022/09/07 09:13:46;;;;;;;20.80;15.88;;;;;;;;;;5094263;28;20491;-79
2022/09/07 09:16:12;;;;;;;23.85;15.50;;;;;;;;;;5094442;28;20024;-79
2022/09/07 09:18:50;;;;;;;20.08;15.13;;;;;;;;;;5094460;28;20028;-79
2022/09/07 09:21:17;;;;;;;21.30;14.48;;;;;;;;;;5075951;28;20355;-79
2022/09/07 09:23:45;;;;;;;21.00;15.45;;;;;;;;;;5110618;28;20016;-78
2022/09/07 09:26:18;;;;;;;19.40;14.45;;;;;;;;;;5114801;28;20095;-79
2022/09/07 09:28:44;;;;;;;19.83;14.82;;;;;;;;;;5096051;28;20024;-79
2022/09/07 09:31:15;;;;;;;20.75;14.80;;;;;;;;;;5114693;28;20073;-78
2022/09/07 09:33:41;;;;;;;21.00;14.63;;;;;;;;;;5114716;28;20089;-79
2022/09/07 09:36:22;;;;;;;20.33;14.93;;;;;;;;;;5114628;28;20610;-79
2022/09/07 09:38:48;;;;;;;18.95;14.65;;;;;;;;;;5114503;28;20023;-79
2022/09/07 09:41:15;;;;;;;19.27;13.13;;;;;;;;;;5114453;28;20031;-78
2022/09/07 09:43:46;;;;;;;17.33;13.13;;;;;;;;;;5114330;28;20157;-78
2022/09/07 09:46:18;;;;;;;19.42;13.27;;;;;;;;;;5114355;28;20011;-79
2022/09/07 09:48:49;;;;;;;15.55;12.07;;;;;;;;;;5114293;28;20477;-79
2022/09/07 09:51:15;;;;;;;14.80;12.40;;;;;;;;;;5114551;28;20071;-78
2022/09/07 09:53:51;;;;;;;14.02;11.57;;;;;;;;;;5114146;28;20027;-79
2022/09/07 09:56:17;;;;;;;19.08;12.23;;;;;;;;;;5114208;28;20075;-79
2022/09/07 09:58:46;;;;;;;15.13;11.88;;;;;;;;;;5113718;28;20031;-78
2022/09/07 10:01:22;;;;;;;16.35;12.55;;;;;;;;;;5095716;28;20601;-79
2022/09/07 10:03:49;;;;;;;14.27;10.65;;;;;;;;;;5114312;28;20019;-79
2022/09/07 10:06:16;;;;;;;13.25;10.27;;;;;;;;;;5114621;28;20450;-79
2022/09/07 10:08:54;;;;;;;14.90;11.23;;;;;;;;;;5095951;28;20426;-79
2022/09/07 10:11:38;;;;;;;18.42;11.73;;;;;;;;;;5114337;28;20427;-79
2022/09/07 10:14:04;;;;;;;15.75;11.52;;;;;;;;;;5096131;28;20028;-79
2022/09/07 10:16:38;;;;;;;23.20;12.55;;;;;;;;;;5114318;28;20088;-79
2022/09/07 10:19:04;;;;;;;20.17;12.07;;;;;;;;;;5113989;28;20438;-79
2022/09/07 10:21:31;;;;;;;16.15;10.50;;;;;;;;;;5095900;28;20406;-79
2022/09/07 10:24:13;;;;;;;16.05;11.40;;;;;;;;;;5114424;28;20023;-79
2022/09/07 10:26:39;;;;;;;18.90;12.32;;;;;;;;;;5114429;28;20019;-79
2022/09/07 10:29:34;;;;;;;15.32;11.25;;;;;;;;;;5114129;28;20440;-79
2022/09/07 10:32:00;;;;;;;15.77;10.23;;;;;;;;;;5092791;28;20108;-79
2022/09/07 10:34:45;;;;;;;17.92;10.93;;;;;;;;;;5095659;28;20031;-79
2022/09/07 10:37:18;;;;;;;16.65;10.63;;;;;;;;;;5113955;28;20023;-79
2022/09/07 10:39:54;;;;;;;14.27;10.07;;;;;;;;;;5113862;28;20030;-79
2022/09/07 10:42:35;;;;;;;17.88;9.90;;;;;;;;;;5095782;28;20102;-79
2022/09/07 10:45:10;;;;;;;11.10;8.73;;;;;;;;;;5114134;28;20019;-79
2022/09/07 10:47:46;;;;;;;12.35;8.70;;;;;;;;;;5113946;28;20121;-79
2022/09/07 10:50:31;;;;;;;11.05;8.35;;;;;;;;;;5113814;28;20469;-79
2022/09/07 10:53:00;;;;;;;9.82;6.90;;;;;;;;;;5113509;28;20035;-79
2022/09/07 10:55:33;;;;;;;12.57;7.60;;;;;;;;;;5113658;28;20111;-79
2022/09/07 10:58:02;;;;;;;13.40;8.27;;;;;;;;;;5113475;28;20330;-79
2022/09/07 11:00:34;;;;;;;9.18;6.85;;;;;;;;;;5113465;28;20347;-79
2022/09/07 11:03:00;;;;;;;7.90;6.15;;;;;;;;;;5113303;28;20074;-79
2022/09/07 11:05:26;;;;;;;12.93;5.10;;;;;;;;;;5113283;28;20027;-79
2022/09/07 11:08:11;;;;;;;6.80;4.65;;;;;;;;;;5113269;28;20030;-79
2022/09/07 11:10:58;;;;;;;6.82;4.88;;;;;;;;;;5113575;28;20020;-79
2022/09/07 11:13:25;;;;;;;7.10;4.40;;;;;;;;;;5113469;28;20148;-79
2022/09/07 11:15:54;;;;;;;7.57;2.58;;;;;;;;;;5113388;28;20068;-79
2022/09/07 11:18:25;;;;;;;5.43;2.15;;;;;;;;;;5113556;28;20023;-79
2022/09/07 11:20:57;;;;;;;6.43;2.08;;;;;;;;;;5113078;28;20015;-79
2022/09/07 11:23:30;;;;;;;5.40;2.90;;;;;;;;;;5113113;28;20408;-80
2022/09/07 11:26:12;;;;;;;5.60;2.70;;;;;;;;;;5113248;28;20042;-79
2022/09/07 11:28:39;;;;;;;11.10;2.95;;;;;;;;;;5112959;28;20081;-79
2022/09/07 11:31:11;;;;;;;6.88;2.63;;;;;;;;;;5094247;28;20461;-79
2022/09/07 11:33:43;;;;;;;8.02;2.75;;;;;;;;;;5113129;28;20080;-80
2022/09/07 11:36:12;;;;;;;6.93;2.63;;;;;;;;;;5113069;28;20076;-79
2022/09/07 11:38:41;;;;;;;5.20;2.40;;;;;;;;;;5112877;28;20024;-80
2022/09/07 11:41:14;;;;;;;5.85;2.53;;;;;;;;;;5113042;28;20099;-80
2022/09/07 11:43:45;;;;;;;4.43;2.42;;;;;;;;;;5112947;28;20020;-80
2022/09/07 11:46:31;;;;;;;7.23;2.77;;;;;;;;;;5112662;28;20415;-80
2022/09/07 11:48:57;;;;;;;8.63;3.30;;;;;;;;;;5112713;28;20140;-80
2022/09/07 11:51:23;;;;;;;6.05;2.55;;;;;;;;;;5112950;28;20404;-80
2022/09/07 11:53:53;;;;;;;8.82;3.00;;;;;;;;;;5112656;28;20370;-80
2022/09/07 11:56:26;;;;;;;8.50;2.50;;;;;;;;;;5112818;28;20170;-80
2022/09/07 11:58:58;;;;;;;10.63;2.30;;;;;;;;;;5112927;28;20019;-80
2022/09/07 12:01:40;;;;;;;6.40;2.40;;;;;;;;;;5112687;28;20031;-80
2022/09/07 12:04:28;;;;;;;10.43;2.20;;;;;;;;;;5094420;28;20016;-80
2022/09/07 12:07:00;;;;;;;7.88;2.28;;;;;;;;;;5112573;28;20081;-80
2022/09/07 12:09:43;;;;;;;9.63;2.85;;;;;;;;;;5112746;28;20035;-80
2022/09/07 12:12:30;;;;;;;6.80;2.38;;;;;;;;;;5112272;28;20050;-80
2022/09/07 12:15:02;;;;;;;7.32;2.28;;;;;;;;;;5112433;28;20327;-80
2022/09/07 12:17:33;;;;;;;7.10;2.40;;;;;;;;;;5094146;28;20023;-79
2022/09/07 12:20:09;;;;;;;5.22;1.80;;;;;;;;;;5112602;28;20036;-80
2022/09/07 12:22:36;;;;;;;9.70;2.95;;;;;;;;;;5112495;28;20039;-80
2022/09/07 12:25:09;;;;;;;6.95;2.25;;;;;;;;;;5112333;28;20163;-80
2022/09/07 12:27:36;;;;;;;8.13;2.40;;;;;;;;;;5094062;28;20028;-80
2022/09/07 12:30:02;;;;;;;4.95;1.70;;;;;;;;;;5112378;28;20071;-80
2022/09/07 12:32:46;;;;;;;9.25;2.50;;;;;;;;;;5112164;28;20015;-80
2022/09/07 12:35:36;;;;;;;7.22;2.33;;;;;;;;;;5092103;28;20081;-80
2022/09/07 12:38:17;;;;;;;7.28;2.15;;;;;;;;;;5081244;28;20051;-80
2022/09/07 12:41:02;;;;;;;10.35;2.28;;;;;;;;;;5073734;28;20023;-80
2022/09/07 12:43:32;;;;;;;9.27;2.45;;;;;;;;;;5096010;28;20089;-80
2022/09/07 12:45:59;;;;;;;9.75;2.88;;;;;;;;;;5095868;28;20016;-80
2022/09/07 12:48:28;;;;;;;6.68;2.20;;;;;;;;;;5077624;28;20036;-80
2022/09/07 12:51:14;;;;;;;10.98;2.72;;;;;;;;;;5077265;28;20051;-80
2022/09/07 12:54:04;;;;;;;7.65;2.55;;;;;;;;;;5095607;28;20032;-80
2022/09/07 12:56:38;;;;;;;6.72;1.77;;;;;;;;;;5095600;28;20050;-80
2022/09/07 12:59:22;;;;;;;7.03;2.40;;;;;;;;;;5095316;28;20111;-81
2022/09/07 13:01:54;;;;;;;8.40;2.15;;;;;;;;;;5095392;28;20095;-80
2022/09/07 13:04:36;;;;;;;8.95;2.75;;;;;;;;;;5095332;28;20344;-80
2022/09/07 13:07:17;;;;;;;5.73;2.40;;;;;;;;;;5095498;28;20069;-80
2022/09/07 13:09:55;;;;;;;8.70;2.47;;;;;;;;;;5095290;28;20020;-79
2022/09/07 13:12:21;;;;;;;11.05;2.60;;;;;;;;;;5076936;28;20738;-82
2022/09/07 13:14:51;;;;;;;7.38;2.25;;;;;;;;;;5095811;28;20056;-80
2022/09/07 13:17:26;;;;;;;8.32;2.47;;;;;;;;;;5095319;28;20482;-82
2022/09/07 13:19:52;;;;;;;5.95;2.00;;;;;;;;;;5095357;28;20043;-79
2022/09/07 13:22:30;;;;;;;8.90;2.53;;;;;;;;;;5099594;28;20072;-82
2022/09/07 13:25:00;;;;;;;7.70;2.15;;;;;;;;;;5115351;28;20028;-80
2022/09/07 13:27:27;;;;;;;5.68;1.77;;;;;;;;;;5115507;28;20024;-80
2022/09/07 13:30:04;;;;;;;10.23;1.90;;;;;;;;;;5115523;28;20033;-80
2022/09/07 13:32:31;;;;;;;9.93;1.70;;;;;;;;;;5115445;28;20106;-80
2022/09/07 13:35:00;;;;;;;6.75;1.65;;;;;;;;;;5115288;28;20030;-80
2022/09/07 13:37:27;;;;;;;18.90;2.72;;;;;;;;;;5114750;28;20062;-80
2022/09/07 13:39:55;;;;;;;5.22;1.30;;;;;;;;;;5114767;28;20024;-82
2022/09/07 13:42:24;;;;;;;5.70;1.05;;;;;;;;;;5115000;28;20030;-82
2022/09/07 13:44:57;;;;;;;4.38;1.00;;;;;;;;;;5096518;28;20535;-82
2022/09/07 13:47:26;;;;;;;3.80;1.13;;;;;;;;;;5114853;28;20019;-82
2022/09/07 13:49:55;;;;;;;7.18;1.10;;;;;;;;;;5114854;28;20103;-82
2022/09/07 13:52:27;;;;;;;9.05;1.25;;;;;;;;;;5114607;28;20062;-82
2022/09/07 13:55:10;;;;;;;2.67;0.90;;;;;;;;;;5114832;28;20541;-80
2022/09/07 13:57:36;;;;;;;2.80;1.08;;;;;;;;;;5095966;28;20074;-80
2022/09/07 14:00:02;;;;;;;4.97;1.15;;;;;;;;;;5114354;28;20055;-82
2022/09/07 14:02:34;;;;;;;4.80;1.08;;;;;;;;;;5114349;28;20166;-80
2022/09/07 14:05:00;;;;;;;5.70;1.00;;;;;;;;;;5114586;28;20019;-80
2022/09/07 14:07:27;;;;;;;6.50;1.20;;;;;;;;;;5114897;28;20016;-80
2022/09/07 14:10:09;;;;;;;5.55;1.20;;;;;;;;;;5114570;28;20043;-81
2022/09/07 14:12:42;;;;;;;4.63;1.08;;;;;;;;;;5114218;28;20092;-81
2022/09/07 14:15:18;;;;;;;3.08;1.00;;;;;;;;;;5114545;28;20071;-82
2022/09/07 14:17:44;;;;;;;6.20;1.45;;;;;;;;;;5114227;28;20012;-81
2022/09/07 14:20:17;;;;;;;7.93;2.47;;;;;;;;;;5114142;28;20130;-80
2022/09/07 14:22:44;;;;;;;6.30;1.88;;;;;;;;;;5095937;28;20023;-82
2022/09/07 14:25:17;;;;;;;5.78;1.85;;;;;;;;;;5114350;28;20026;-82
2022/09/07 14:27:45;;;;;;;4.82;1.00;;;;;;;;;;5113979;28;20042;-80
2022/09/07 14:30:15;;;;;;;4.13;1.10;;;;;;;;;;5113923;28;20019;-82
2022/09/07 14:32:42;;;;;;;3.38;0.90;;;;;;;;;;5113259;28;20022;-82
2022/09/07 14:35:16;;;;;;;5.90;1.08;;;;;;;;;;5093724;28;20419;-81
2022/09/07 14:37:42;;;;;;;4.78;1.02;;;;;;;;;;5093545;28;20149;-80
2022/09/07 14:40:20;;;;;;;5.75;1.42;;;;;;;;;;5093620;28;20103;-80
2022/09/07 14:42:46;;;;;;;3.83;0.95;;;;;;;;;;5093552;28;20044;-82
2022/09/07 14:45:32;;;;;;;3.65;0.98;;;;;;;;;;5093776;28;20024;-80
2022/09/07 14:47:58;;;;;;;3.42;1.05;;;;;;;;;;5075243;28;20116;-82